createdAt,value
2022-09-07T00:01:09.545Z,19.03
2022-09-07T00:06:12.109Z,19.01
2022-09-07T00:11:14.729Z,18.93
2022-09-07T00:16:17.479Z,18.82
2022-09-07T00:27:18.050Z,18.58
2022-09-07T00:32:20.660Z,18.46
2022-09-07T00:37:23.307Z,18.39
2022-09-07T00:42:25.744Z,18.28
2022-09-07T00:47:28.387Z,18.23
2022-09-07T00:52:30.935Z,18.14
2022-09-07T00:57:33.620Z,18.01
2022-09-07T01:02:36.502Z,17.96
2022-09-07T01:07:38.992Z,17.91
2022-09-07T01:12:41.926Z,17.82
2022-09-07T01:17:44.544Z,17.73
2022-09-07T01:22:47.113Z,17.7
2022-09-07T01:27:49.778Z,17.62
2022-09-07T01:32:52.475Z,17.57
2022-09-07T01:37:57.806Z,17.46
2022-09-07T01:43:00.497Z,17.41
2022-09-07T01:48:02.823Z,17.39
2022-09-07T01:53:05.399Z,17.37
2022-09-07T01:58:08.200Z,17.29
2022-09-07T02:03:11.125Z,17.3
2022-09-07T02:08:14.085Z,17.25
2022-09-07T02:13:16.748Z,17.22
2022-09-07T02:18:19.411Z,17.19
2022-09-07T02:23:22.022Z,17.13
2022-09-07T02:28:24.811Z,17.08
2022-09-07T02:33:27.233Z,17.05
2022-09-07T02:38:29.941Z,17.03
2022-09-07T02:43:32.454Z,17
2022-09-07T02:48:35.284Z,16.94
2022-09-07T02:53:38.049Z,16.89
2022-09-07T02:58:40.826Z,16.81
2022-09-07T03:03:43.472Z,16.77
2022-09-07T03:08:46.145Z,16.76
2022-09-07T03:13:48.913Z,16.7
2022-09-07T03:18:51.439Z,16.63
2022-09-07T03:23:53.872Z,16.57
2022-09-07T03:28:56.407Z,16.56
2022-09-07T03:33:59.365Z,16.53
2022-09-07T03:39:02.074Z,16.53
2022-09-07T03:44:04.621Z,16.53
2022-09-07T03:49:07.160Z,16.46
2022-09-07T03:54:09.769Z,16.44
2022-09-07T03:59:12.151Z,16.41
2022-09-07T04:04:14.616Z,16.41
2022-09-07T04:09:17.582Z,16.37
2022-09-07T04:14:20.124Z,16.33
2022-09-07T04:19:23.066Z,16.34
2022-09-07T04:24:25.709Z,16.36
2022-09-07T04:29:28.255Z,16.31
2022-09-07T04:34:30.826Z,16.28
2022-09-07T04:39:33.439Z,16.37
2022-09-07T04:44:35.932Z,16.33
2022-09-07T04:49:38.751Z,16.31
2022-09-07T04:54:41.485Z,16.27
2022-09-07T05:04:46.953Z,16.32
2022-09-07T05:09:49.770Z,16.37
2022-09-07T05:14:52.504Z,16.41
2022-09-07T05:19:55.193Z,16.51
2022-09-07T05:24:58.142Z,16.95
2022-09-07T05:30:01.026Z,17.21
2022-09-07T05:35:03.593Z,17.26
2022-09-07T05:40:06.320Z,17.75
2022-09-07T05:45:09.149Z,17.79
2022-09-07T05:50:11.659Z,17.62
2022-09-07T05:55:29.199Z,17.66
2022-09-07T06:00:17.292Z,18.31
2022-09-07T06:05:19.945Z,18.36
2022-09-07T06:15:25.240Z,18.62
2022-09-07T06:20:28.046Z,18.99
2022-09-07T06:25:30.784Z,18.84
2022-09-07T06:30:33.430Z,18.92
2022-09-07T06:35:36.100Z,19.08
2022-09-07T06:40:38.938Z,19.33
2022-09-07T06:45:41.649Z,19.28
2022-09-07T06:50:46.997Z,19.65
2022-09-07T06:55:49.543Z,19.59
2022-09-07T07:05:54.705Z,19.68
2022-09-07T07:10:57.451Z,19.63
2022-09-07T07:16:00.179Z,19.95
2022-09-07T07:21:03.604Z,20.26
2022-09-07T07:26:06.281Z,20.54
2022-09-07T07:31:11.226Z,20.11
2022-09-07T07:41:58.593Z,20.42
2022-09-07T07:46:59.977Z,20.4
2022-09-07T07:57:04.864Z,20.25
2022-09-07T08:02:07.697Z,21.41
2022-09-07T08:07:11.265Z,21.79
2022-09-07T08:12:13.762Z,22.01
2022-09-07T08:17:16.309Z,22.65
2022-09-07T08:22:19.106Z,22.72
2022-09-07T08:27:21.949Z,22.78
2022-09-07T08:32:24.589Z,22.76
2022-09-07T08:37:27.104Z,22.71
2022-09-07T08:42:29.556Z,22.21
2022-09-07T08:47:32.142Z,22.82
2022-09-07T08:52:34.740Z,22.83
2022-09-07T08:57:37.607Z,23.63
2022-09-07T09:02:43.741Z,23.01
2022-09-07T09:07:43.266Z,23.61
2022-09-07T09:12:45.964Z,23.64
2022-09-07T09:17:48.586Z,24.06
2022-09-07T09:27:54.002Z,24.25
2022-09-07T09:32:56.598Z,24.44
2022-09-07T09:37:59.424Z,24.13
2022-09-07T09:43:02.020Z,24.81
2022-09-07T09:48:04.709Z,24.74
2022-09-07T09:53:07.252Z,23.81
2022-09-07T10:08:18.095Z,25.03
2022-09-07T10:13:21.214Z,26.34
2022-09-07T10:18:24.220Z,26.66
2022-09-07T10:23:26.724Z,25.4
2022-09-07T10:29:06.306Z,25.74
2022-09-07T10:33:32.727Z,26.01
2022-09-07T10:38:35.400Z,26.39
2022-09-07T10:43:37.951Z,26.28
2022-09-07T10:48:40.392Z,25.54
2022-09-07T10:53:43.169Z,25.48
2022-09-07T11:03:48.119Z,25.48
2022-09-07T11:14:11.779Z,25.97
2022-09-07T11:19:34.909Z,26.48
2022-09-07T11:23:58.987Z,26.47
2022-09-07T11:39:09.624Z,26.62
2022-09-07T11:44:12.241Z,26.68
2022-09-07T11:49:14.909Z,26.42
2022-09-07T11:59:20.548Z,27.04
2022-09-07T12:09:26.141Z,27.24
2022-09-07T12:19:31.577Z,27.71
2022-09-07T12:24:37.083Z,27.35
2022-09-07T12:29:45.011Z,26.78
2022-09-07T12:34:42.334Z,27.02
2022-09-07T12:39:44.906Z,26.99
2022-09-07T12:44:47.482Z,26.6
2022-09-07T12:49:50.209Z,26.45
2022-09-07T12:55:10.266Z,26.33
2022-09-07T12:59:55.634Z,26.45
2022-09-07T13:04:58.473Z,26.17
2022-09-07T13:10:01.121Z,26.18
2022-09-07T13:15:03.560Z,26.2
2022-09-07T13:25:09.554Z,26.65
2022-09-07T13:30:12.127Z,26.48
2022-09-07T13:35:14.738Z,27.01
2022-09-07T13:40:17.265Z,26.47
2022-09-07T13:45:20.048Z,26.3
2022-09-07T13:50:22.852Z,26.39
2022-09-07T13:55:26.075Z,26.32
2022-09-07T14:05:30.819Z,26.1
2022-09-07T14:10:33.780Z,26.64
2022-09-07T14:15:36.407Z,26.99
2022-09-07T14:20:39.339Z,26.86
2022-09-07T14:30:45.733Z,26.25
2022-09-07T14:35:47.690Z,26.46
2022-09-07T14:40:51.544Z,26.41
2022-09-07T14:45:53.006Z,26.05
2022-09-07T14:51:11.158Z,26.08
2022-09-07T14:55:58.636Z,25.89
2022-09-07T15:06:06.525Z,26.55
2022-09-07T15:11:41.150Z,26.73
2022-09-07T15:16:14.418Z,26.67
2022-09-07T15:21:16.900Z,26.6
2022-09-07T15:36:24.718Z,26.09
2022-09-07T15:41:27.639Z,25.91
2022-09-07T15:46:29.983Z,25.77
2022-09-07T15:56:36.855Z,25.85
2022-09-07T16:01:53.861Z,25.79
2022-09-07T16:06:40.709Z,25.8
2022-09-07T16:11:43.330Z,25.64
2022-09-07T16:26:51.101Z,25.51
2022-09-07T16:36:56.070Z,25.5
2022-09-07T16:42:00.017Z,25.43
2022-09-07T16:47:01.558Z,25.38
2022-09-07T16:57:07.119Z,25.37
2022-09-07T17:02:09.763Z,25.3
2022-09-07T17:07:12.354Z,25.16
2022-09-07T17:12:17.914Z,25.08
2022-09-07T17:17:20.722Z,25.03
2022-09-07T17:22:23.446Z,25
2022-09-07T17:27:27.228Z,24.88
2022-09-07T17:32:28.913Z,24.76
2022-09-07T17:47:36.624Z,23.74
2022-09-07T17:52:41.068Z,23.43
2022-09-07T17:57:42.473Z,23.23
2022-09-07T18:02:44.919Z,23.08
2022-09-07T18:07:47.854Z,22.92
2022-09-07T18:12:50.523Z,22.79
2022-09-07T18:17:53.880Z,22.65
2022-09-07T18:22:57.692Z,22.54
2022-09-07T18:33:02.101Z,22.39
2022-09-07T18:38:04.879Z,22.32
2022-09-07T18:48:10.152Z,22.32
2022-09-07T18:53:16.629Z,22.24
2022-09-07T18:58:15.604Z,22.23
2022-09-07T19:03:18.745Z,22.27
2022-09-07T19:08:21.390Z,22.28
2022-09-07T19:13:26.679Z,22.27
2022-09-07T19:18:29.335Z,22.26
2022-09-07T19:23:32.028Z,22.23
2022-09-07T19:28:34.651Z,22.2
2022-09-07T19:33:37.310Z,22.13
2022-09-07T19:38:39.948Z,22.11
2022-09-07T19:43:42.658Z,22.14
2022-09-07T19:48:45.484Z,22.14
2022-09-07T19:53:48.239Z,22.12
2022-09-07T19:58:51.038Z,22.04
2022-09-07T20:03:53.956Z,21.99
2022-09-07T20:08:56.641Z,22
2022-09-07T20:19:02.120Z,21.96
2022-09-07T20:29:29.615Z,22.04
2022-09-07T20:34:10.026Z,21.98
2022-09-07T20:44:15.429Z,21.9
2022-09-07T20:49:18.135Z,21.91
2022-09-07T20:54:20.790Z,21.88
2022-09-07T21:04:28.905Z,21.76
2022-09-07T21:09:31.535Z,21.62
2022-09-07T21:14:37.049Z,21.58
2022-09-07T21:19:39.787Z,21.53
2022-09-07T21:24:42.452Z,21.37
2022-09-07T21:29:45.172Z,21.33
2022-09-07T21:34:48.021Z,21.28
2022-09-07T21:39:50.805Z,21.32
2022-09-07T21:44:53.436Z,21.25
2022-09-07T21:49:56.281Z,21.23
2022-09-07T21:54:58.939Z,21.2
2022-09-07T22:05:04.409Z,21.08
2022-09-07T22:10:06.932Z,21.01
2022-09-07T22:15:09.549Z,20.92
2022-09-07T22:25:16.001Z,20.75
2022-09-07T22:30:18.447Z,20.69
2022-09-07T22:35:21.140Z,20.58
2022-09-07T22:40:23.922Z,20.53
2022-09-07T22:45:29.199Z,20.52
2022-09-07T22:50:31.779Z,20.44
2022-09-07T23:00:37.122Z,20.36
2022-09-07T23:05:39.443Z,20.34
2022-09-07T23:10:42.066Z,20.29
2022-09-07T23:21:14.932Z,20.17
2022-09-07T23:26:17.636Z,20.12
2022-09-07T23:31:20.146Z,20.01
2022-09-07T23:36:22.684Z,19.92
2022-09-07T23:46:28.222Z,19.83
2022-09-07T23:51:30.901Z,19.79
2022-09-07T23:56:33.337Z,19.71
